sensor_id;sensor_type;location;lat;lon;timestamp;P1;durP1;ratioP1;P2;durP2;ratioP2
76703;SDS011;65631;44.498;0.166;2022-12-18T00:09:58;56.77;;;22.53;;
76703;SDS011;65631;44.498;0.166;2022-12-18T00:23:48;47.13;;;23.97;;
76703;SDS011;65631;44.498;0.166;2022-12-18T00:37:37;65.47;;;30.50;;
76703;SDS011;65631;44.498;0.166;2022-12-18T00:51:27;56.30;;;28.13;;
76703;SDS011;65631;44.498;0.166;2022-12-18T01:05:17;51.30;;;26.20;;
76703;SDS011;65631;44.498;0.166;2022-12-18T01:19:06;66.53;;;29.87;;
76703;SDS011;65631;44.498;0.166;2022-12-18T01:32:56;68.07;;;33.23;;
76703;SDS011;65631;44.498;0.166;2022-12-18T01:46:46;60.57;;;27.10;;
76703;SDS011;65631;44.498;0.166;2022-12-18T02:00:37;53.03;;;23.77;;
76703;SDS011;65631;44.498;0.166;2022-12-18T02:14:28;47.50;;;22.60;;
76703;SDS011;65631;44.498;0.166;2022-12-18T02:28:17;49.73;;;22.00;;
76703;SDS011;65631;44.498;0.166;2022-12-18T02:42:08;38.70;;;19.17;;
76703;SDS011;65631;44.498;0.166;2022-12-18T02:56:00;50.37;;;20.63;;
76703;SDS011;65631;44.498;0.166;2022-12-18T03:09:49;40.20;;;18.60;;
76703;SDS011;65631;44.498;0.166;2022-12-18T03:23:39;52.70;;;21.03;;
76703;SDS011;65631;44.498;0.166;2022-12-18T03:37:31;49.20;;;20.67;;
76703;SDS011;65631;44.498;0.166;2022-12-18T03:51:22;51.70;;;20.60;;
76703;SDS011;65631;44.498;0.166;2022-12-18T04:05:09;61.13;;;26.27;;
76703;SDS011;65631;44.498;0.166;2022-12-18T04:18:58;46.07;;;18.73;;
76703;SDS011;65631;44.498;0.166;2022-12-18T04:32:48;45.03;;;19.47;;
76703;SDS011;65631;44.498;0.166;2022-12-18T04:46:39;52.10;;;21.37;;
76703;SDS011;65631;44.498;0.166;2022-12-18T05:00:30;36.50;;;16.13;;
76703;SDS011;65631;44.498;0.166;2022-12-18T05:14:28;35.10;;;16.67;;
76703;SDS011;65631;44.498;0.166;2022-12-18T05:28:10;43.17;;;17.37;;
76703;SDS011;65631;44.498;0.166;2022-12-18T05:42:03;36.17;;;16.17;;
76703;SDS011;65631;44.498;0.166;2022-12-18T05:55:51;35.40;;;16.13;;
76703;SDS011;65631;44.498;0.166;2022-12-18T06:09:42;26.63;;;12.50;;
76703;SDS011;65631;44.498;0.166;2022-12-18T06:23:32;19.83;;;11.60;;
76703;SDS011;65631;44.498;0.166;2022-12-18T06:37:22;19.43;;;11.90;;
76703;SDS011;65631;44.498;0.166;2022-12-18T06:51:11;21.80;;;9.47;;
76703;SDS011;65631;44.498;0.166;2022-12-18T07:05:02;26.93;;;12.47;;
76703;SDS011;65631;44.498;0.166;2022-12-18T07:18:51;27.90;;;14.30;;
76703;SDS011;65631;44.498;0.166;2022-12-18T07:32:40;19.33;;;12.00;;
76703;SDS011;65631;44.498;0.166;2022-12-18T07:46:30;24.47;;;14.50;;
76703;SDS011;65631;44.498;0.166;2022-12-18T08:00:21;15.23;;;9.23;;
76703;SDS011;65631;44.498;0.166;2022-12-18T08:14:12;15.37;;;9.60;;
76703;SDS011;65631;44.498;0.166;2022-12-18T08:28:07;12.33;;;7.23;;
76703;SDS011;65631;44.498;0.166;2022-12-18T08:42:03;10.10;;;6.80;;
76703;SDS011;65631;44.498;0.166;2022-12-18T08:55:46;8.80;;;6.03;;
76703;SDS011;65631;44.498;0.166;2022-12-18T09:09:38;7.83;;;5.27;;
76703;SDS011;65631;44.498;0.166;2022-12-18T09:23:29;9.97;;;6.63;;
76703;SDS011;65631;44.498;0.166;2022-12-18T09:37:20;7.83;;;6.27;;
76703;SDS011;65631;44.498;0.166;2022-12-18T09:51:13;5.57;;;4.30;;
76703;SDS011;65631;44.498;0.166;2022-12-18T10:05:05;6.60;;;5.00;;
76703;SDS011;65631;44.498;0.166;2022-12-18T10:18:57;6.43;;;3.60;;
76703;SDS011;65631;44.498;0.166;2022-12-18T10:32:43;8.97;;;4.57;;
76703;SDS011;65631;44.498;0.166;2022-12-18T10:46:33;6.87;;;4.03;;
76703;SDS011;65631;44.498;0.166;2022-12-18T11:00:26;4.77;;;4.17;;
76703;SDS011;65631;44.498;0.166;2022-12-18T11:14:17;8.07;;;5.27;;
76703;SDS011;65631;44.498;0.166;2022-12-18T11:42:08;5.43;;;3.80;;
76703;SDS011;65631;44.498;0.166;2022-12-18T11:55:52;4.03;;;3.53;;
76703;SDS011;65631;44.498;0.166;2022-12-18T12:09:40;4.50;;;4.10;;
76703;SDS011;65631;44.498;0.166;2022-12-18T12:23:30;5.77;;;3.70;;
76703;SDS011;65631;44.498;0.166;2022-12-18T12:37:21;6.97;;;3.63;;
76703;SDS011;65631;44.498;0.166;2022-12-18T12:51:11;6.20;;;4.60;;
76703;SDS011;65631;44.498;0.166;2022-12-18T13:05:00;9.93;;;4.93;;
76703;SDS011;65631;44.498;0.166;2022-12-18T13:18:48;6.17;;;4.87;;
76703;SDS011;65631;44.498;0.166;2022-12-18T13:32:37;6.93;;;4.57;;
76703;SDS011;65631;44.498;0.166;2022-12-18T13:46:30;6.13;;;4.43;;
76703;SDS011;65631;44.498;0.166;2022-12-18T14:00:24;6.00;;;3.73;;
76703;SDS011;65631;44.498;0.166;2022-12-18T14:14:13;5.43;;;3.60;;
76703;SDS011;65631;44.498;0.166;2022-12-18T14:28:12;9.67;;;4.40;;
76703;SDS011;65631;44.498;0.166;2022-12-18T14:41:52;5.83;;;3.17;;
76703;SDS011;65631;44.498;0.166;2022-12-18T14:55:43;3.50;;;2.80;;
76703;SDS011;65631;44.498;0.166;2022-12-18T15:09:31;4.40;;;3.17;;
76703;SDS011;65631;44.498;0.166;2022-12-18T15:23:20;6.17;;;3.60;;
76703;SDS011;65631;44.498;0.166;2022-12-18T15:37:08;5.43;;;4.03;;
76703;SDS011;65631;44.498;0.166;2022-12-18T15:50:59;5.33;;;3.53;;
76703;SDS011;65631;44.498;0.166;2022-12-18T16:04:48;7.90;;;4.40;;
76703;SDS011;65631;44.498;0.166;2022-12-18T16:18:39;4.57;;;3.80;;
76703;SDS011;65631;44.498;0.166;2022-12-18T16:32:30;5.10;;;3.43;;
76703;SDS011;65631;44.498;0.166;2022-12-18T16:46:19;6.20;;;4.53;;
76703;SDS011;65631;44.498;0.166;2022-12-18T17:00:11;4.57;;;3.73;;
76703;SDS011;65631;44.498;0.166;2022-12-18T17:13:58;6.77;;;5.30;;
76703;SDS011;65631;44.498;0.166;2022-12-18T17:27:49;5.73;;;4.30;;
76703;SDS011;65631;44.498;0.166;2022-12-18T17:41:39;6.80;;;4.33;;
76703;SDS011;65631;44.498;0.166;2022-12-18T17:55:27;7.27;;;5.00;;
76703;SDS011;65631;44.498;0.166;2022-12-18T18:09:17;7.50;;;4.50;;
76703;SDS011;65631;44.498;0.166;2022-12-18T18:23:10;5.80;;;4.77;;
76703;SDS011;65631;44.498;0.166;2022-12-18T18:36:54;9.13;;;5.00;;
76703;SDS011;65631;44.498;0.166;2022-12-18T19:04:33;5.90;;;4.27;;
76703;SDS011;65631;44.498;0.166;2022-12-18T19:18:24;8.97;;;5.83;;
76703;SDS011;65631;44.498;0.166;2022-12-18T19:32:13;12.70;;;7.27;;
76703;SDS011;65631;44.498;0.166;2022-12-18T19:46:04;7.93;;;5.23;;
76703;SDS011;65631;44.498;0.166;2022-12-18T19:59:54;10.50;;;6.13;;
76703;SDS011;65631;44.498;0.166;2022-12-18T20:13:43;8.10;;;5.37;;
76703;SDS011;65631;44.498;0.166;2022-12-18T20:27:33;12.00;;;5.27;;
76703;SDS011;65631;44.498;0.166;2022-12-18T20:41:24;11.30;;;5.90;;
76703;SDS011;65631;44.498;0.166;2022-12-18T20:55:14;8.67;;;5.33;;
76703;SDS011;65631;44.498;0.166;2022-12-18T21:09:04;14.60;;;6.63;;
76703;SDS011;65631;44.498;0.166;2022-12-18T21:22:54;9.67;;;4.63;;
76703;SDS011;65631;44.498;0.166;2022-12-18T21:36:43;9.27;;;4.93;;
76703;SDS011;65631;44.498;0.166;2022-12-18T21:50:33;9.07;;;5.70;;
76703;SDS011;65631;44.498;0.166;2022-12-18T22:04:25;10.83;;;5.83;;
76703;SDS011;65631;44.498;0.166;2022-12-18T22:18:15;15.50;;;6.60;;
76703;SDS011;65631;44.498;0.166;2022-12-18T22:32:07;15.87;;;6.33;;
76703;SDS011;65631;44.498;0.166;2022-12-18T22:45:56;7.70;;;5.23;;
76703;SDS011;65631;44.498;0.166;2022-12-18T22:59:46;12.23;;;5.67;;
76703;SDS011;65631;44.498;0.166;2022-12-18T23:13:36;12.13;;;5.77;;
76703;SDS011;65631;44.498;0.166;2022-12-18T23:27:25;11.33;;;6.00;;
76703;SDS011;65631;44.498;0.166;2022-12-18T23:41:17;10.37;;;4.03;;
76703;SDS011;65631;44.498;0.166;2022-12-18T23:55:07;10.43;;;3.27;;
